createdAt,value
2019-02-21T00:03:59.891Z,57.04
2019-02-21T00:09:05.121Z,57.05
2019-02-21T00:14:09.338Z,57.33
2019-02-21T00:19:13.393Z,57.26
2019-02-21T00:24:17.440Z,57.02
2019-02-21T00:29:21.478Z,57.42
2019-02-21T00:34:25.543Z,57.36
2019-02-21T00:39:29.553Z,57.32
2019-02-21T00:44:33.579Z,57.31
2019-02-21T00:49:37.602Z,57.24
2019-02-21T00:54:41.629Z,57.19
2019-02-21T00:59:45.672Z,57.43
2019-02-21T01:04:49.754Z,57.39
2019-02-21T01:09:53.855Z,57.49
2019-02-21T01:14:57.869Z,57.46
2019-02-21T01:20:01.900Z,57.54
2019-02-21T01:25:06.543Z,57.52
2019-02-21T01:30:10.795Z,57.58
2019-02-21T01:35:14.802Z,57.54
2019-02-21T01:40:18.850Z,57.65
2019-02-21T01:45:22.911Z,57.66
2019-02-21T01:50:26.944Z,57.73
2019-02-21T01:55:30.955Z,57.97
2019-02-21T02:00:35.049Z,57.88
2019-02-21T02:05:39.049Z,57.91
2019-02-21T02:10:43.111Z,58.25
2019-02-21T02:15:47.138Z,57.85
2019-02-21T02:20:51.169Z,58.18
2019-02-21T02:25:55.193Z,57.91
2019-02-21T02:30:59.221Z,58.16
2019-02-21T02:36:03.237Z,58.15
2019-02-21T02:41:07.274Z,57.80
2019-02-21T02:46:11.289Z,57.62
2019-02-21T02:51:15.343Z,57.42
2019-02-21T02:56:19.355Z,57.46
2019-02-21T03:01:34.363Z,57.96
2019-02-21T03:06:29.129Z,58.18
2019-02-21T03:11:33.154Z,58.46
2019-02-21T03:16:37.185Z,58.24
2019-02-21T03:21:42.133Z,58.58
2019-02-21T03:26:46.167Z,58.58
2019-02-21T03:31:54.925Z,58.58
2019-02-21T03:36:55.982Z,58.61
2019-02-21T03:42:00.012Z,58.40
2019-02-21T03:47:04.050Z,58.43
2019-02-21T03:52:08.077Z,58.84
2019-02-21T03:57:12.166Z,58.65
2019-02-21T04:02:16.283Z,58.49
2019-02-21T04:07:21.816Z,58.84
2019-02-21T04:12:26.279Z,59.35
2019-02-21T04:17:30.317Z,59.25
2019-02-21T04:22:34.329Z,59.29
2019-02-21T04:27:38.349Z,59.84
2019-02-21T04:32:42.380Z,60.24
2019-02-21T04:37:46.426Z,60.32
2019-02-21T04:42:50.551Z,60.82
2019-02-21T04:47:54.591Z,60.90
2019-02-21T04:52:58.674Z,61.42
2019-02-21T04:58:02.691Z,61.59
2019-02-21T05:03:06.717Z,61.60
2019-02-21T05:08:10.748Z,62.08
2019-02-21T05:13:14.778Z,62.28
2019-02-21T05:18:18.800Z,63.18
2019-02-21T05:23:22.823Z,63.61
2019-02-21T05:28:30.988Z,64.77
2019-02-21T05:33:57.022Z,65.08
2019-02-21T05:39:10.492Z,66.38
2019-02-21T05:44:45.468Z,66.66
2019-02-21T05:50:08.275Z,67.43
2019-02-21T05:55:24.043Z,67.25
2019-02-21T06:00:39.039Z,67.21
2019-02-21T06:06:05.109Z,67.40
2019-02-21T06:11:30.870Z,67.62
2019-02-21T06:16:56.055Z,67.67
2019-02-21T06:22:28.086Z,67.69
2019-02-21T06:27:39.025Z,68.09
2019-02-21T06:32:43.048Z,68.27
2019-02-21T06:37:47.079Z,68.21
2019-02-21T06:42:51.113Z,68.67
2019-02-21T06:47:55.115Z,68.23
2019-02-21T06:52:59.410Z,68.04
2019-02-21T06:58:03.449Z,67.77
2019-02-21T07:03:15.513Z,67.20
2019-02-21T07:08:13.246Z,67.41
2019-02-21T07:13:26.156Z,66.38
2019-02-21T07:18:23.068Z,66.20
2019-02-21T07:23:27.752Z,66.36
2019-02-21T07:28:31.805Z,65.18
2019-02-21T07:33:35.859Z,64.58
2019-02-21T07:38:39.882Z,64.54
2019-02-21T07:43:43.933Z,63.73
2019-02-21T07:48:47.959Z,63.65
2019-02-21T07:53:52.008Z,63.66
2019-02-21T07:58:57.685Z,63.10
2019-02-21T08:04:01.731Z,63.72
2019-02-21T08:09:07.050Z,63.62
2019-02-21T08:14:11.079Z,64.03
2019-02-21T08:19:15.130Z,64.25
2019-02-21T08:24:19.150Z,65.45
2019-02-21T08:29:23.212Z,66.87
2019-02-21T08:34:32.050Z,67.92
2019-02-21T08:39:36.080Z,69.30
2019-02-21T08:44:40.129Z,69.66
2019-02-21T08:49:44.136Z,69.84
2019-02-21T08:54:48.166Z,68.83
2019-02-21T08:59:52.178Z,68.94
2019-02-21T09:04:56.249Z,70.41
2019-02-21T09:10:00.386Z,70.05
2019-02-21T09:15:04.981Z,69.95
2019-02-21T09:20:09.834Z,70.16
2019-02-21T09:25:13.901Z,69.89
2019-02-21T09:30:18.727Z,69.97
2019-02-21T09:35:22.737Z,69.30
2019-02-21T09:40:28.502Z,69.19
2019-02-21T09:45:33.199Z,69.12
2019-02-21T09:50:37.355Z,68.90
2019-02-21T09:55:41.401Z,68.38
2019-02-21T10:00:45.444Z,67.90
2019-02-21T10:05:49.953Z,68.63
2019-02-21T10:10:54.168Z,67.46
2019-02-21T10:15:58.290Z,67.71
2019-02-21T10:21:02.627Z,66.74
2019-02-21T10:26:06.753Z,66.19
2019-02-21T10:31:10.762Z,65.23
2019-02-21T10:36:14.791Z,65.28
2019-02-21T10:41:18.959Z,64.35
2019-02-21T10:46:23.098Z,63.39
2019-02-21T10:51:27.138Z,63.59
2019-02-21T10:56:31.171Z,61.47
2019-02-21T11:01:35.195Z,59.65
2019-02-21T11:06:39.235Z,56.74
2019-02-21T11:11:43.288Z,57.19
2019-02-21T11:16:47.330Z,57.02
2019-02-21T11:21:51.392Z,56.60
2019-02-21T11:26:55.571Z,56.77
2019-02-21T11:31:59.601Z,57.62
2019-02-21T11:37:06.880Z,55.86
2019-02-21T11:42:10.996Z,55.25
2019-02-21T11:47:15.051Z,55.96
2019-02-21T11:52:19.095Z,55.88
2019-02-21T11:57:23.423Z,50.44
2019-02-21T12:02:27.456Z,50.45
2019-02-21T12:07:31.549Z,51.33
2019-02-21T12:12:42.671Z,50.58
2019-02-21T12:17:46.790Z,54.66
2019-02-21T12:22:50.887Z,55.67
2019-02-21T12:27:55.039Z,56.13
2019-02-21T12:32:59.129Z,56.78
2019-02-21T12:38:03.187Z,56.55
2019-02-21T12:43:07.398Z,57.07
2019-02-21T12:48:14.018Z,56.72
2019-02-21T12:53:17.779Z,56.45
2019-02-21T12:58:21.804Z,55.34
2019-02-21T13:03:25.960Z,55.61
2019-02-21T13:08:29.989Z,55.08
2019-02-21T13:13:34.063Z,55.50
2019-02-21T13:18:38.304Z,54.74
2019-02-21T13:23:43.024Z,55.17
2019-02-21T13:28:47.233Z,54.92
2019-02-21T13:33:51.274Z,53.97
2019-02-21T13:38:55.313Z,53.60
2019-02-21T13:43:59.331Z,53.72
2019-02-21T13:49:03.361Z,53.84
2019-02-21T13:54:07.406Z,54.37
2019-02-21T13:59:11.447Z,54.88
2019-02-21T14:04:15.505Z,54.89
2019-02-21T14:09:19.633Z,55.56
2019-02-21T14:14:23.676Z,56.06
2019-02-21T14:19:27.740Z,56.34
2019-02-21T14:24:36.804Z,56.58
2019-02-21T14:29:39.542Z,57.65
2019-02-21T14:34:43.287Z,60.27
2019-02-21T14:39:48.299Z,61.79
2019-02-21T14:44:52.381Z,64.43
2019-02-21T14:49:56.370Z,67.11
2019-02-21T14:55:00.512Z,66.85
2019-02-21T15:00:05.620Z,67.22
2019-02-21T15:05:10.189Z,67.26
2019-02-21T15:10:15.648Z,67.27
2019-02-21T15:15:21.955Z,67.09
2019-02-21T15:20:36.268Z,66.47
2019-02-21T15:25:31.626Z,66.14
2019-02-21T15:30:35.671Z,65.25
2019-02-21T15:35:39.735Z,65.64
2019-02-21T15:40:43.745Z,65.69
2019-02-21T15:45:47.830Z,64.99
2019-02-21T15:50:51.857Z,64.65
2019-02-21T15:55:55.897Z,65.02
2019-02-21T16:00:59.929Z,64.95
2019-02-21T16:06:04.182Z,65.16
2019-02-21T16:11:08.227Z,65.45
2019-02-21T16:16:12.625Z,65.15
2019-02-21T16:21:16.797Z,65.71
2019-02-21T16:26:20.860Z,65.44
2019-02-21T16:31:24.914Z,65.60
2019-02-21T16:36:28.963Z,65.31
2019-02-21T16:41:36.385Z,65.67
2019-02-21T16:46:38.932Z,65.59
2019-02-21T16:51:43.004Z,65.70
2019-02-21T16:56:47.160Z,66.01
2019-02-21T17:01:51.248Z,65.82
2019-02-21T17:06:55.353Z,65.45
2019-02-21T17:11:59.398Z,66.06
2019-02-21T17:17:03.422Z,65.89
2019-02-21T17:22:07.475Z,66.05
2019-02-21T17:27:11.728Z,66.66
2019-02-21T17:32:15.791Z,66.59
2019-02-21T17:37:24.898Z,66.42
2019-02-21T17:42:25.810Z,66.51
2019-02-21T17:47:32.599Z,66.38
2019-02-21T17:52:35.805Z,66.34
2019-02-21T17:57:39.896Z,66.64
2019-02-21T18:02:43.933Z,67.30
2019-02-21T18:07:48.218Z,70.38
2019-02-21T18:12:52.398Z,73.19
2019-02-21T18:17:56.503Z,74.41
2019-02-21T18:23:00.575Z,77.71
2019-02-21T18:28:04.569Z,77.40
2019-02-21T18:33:08.606Z,79.15
2019-02-21T18:38:12.650Z,79.64
2019-02-21T18:43:16.735Z,80.78
2019-02-21T18:48:20.758Z,80.78
2019-02-21T18:53:24.793Z,80.66
2019-02-21T18:58:28.831Z,81.08
2019-02-21T19:03:32.917Z,81.37
2019-02-21T19:08:37.109Z,81.66
2019-02-21T19:13:41.096Z,82.17
2019-02-21T19:18:45.152Z,81.90
2019-02-21T19:23:49.264Z,81.69
2019-02-21T19:28:53.446Z,82.07
2019-02-21T19:33:57.544Z,81.66
2019-02-21T19:39:01.578Z,81.40
2019-02-21T19:44:08.829Z,81.81
2019-02-21T19:49:11.742Z,82.46
2019-02-21T19:54:15.821Z,82.66
2019-02-21T19:59:19.926Z,82.38
2019-02-21T20:04:24.066Z,82.69
2019-02-21T20:09:28.306Z,83.05
2019-02-21T20:14:32.517Z,83.21
2019-02-21T20:19:36.598Z,83.18
2019-02-21T20:24:40.774Z,82.88
2019-02-21T20:29:44.831Z,82.81
2019-02-21T20:34:48.941Z,82.98
2019-02-21T20:39:55.026Z,82.99
2019-02-21T20:44:58.796Z,82.55
2019-02-21T20:50:02.870Z,82.92
2019-02-21T20:55:06.947Z,83.13
2019-02-21T21:00:12.125Z,82.87
2019-02-21T21:05:16.219Z,82.31
2019-02-21T21:10:20.391Z,82.84
2019-02-21T21:15:24.461Z,82.93
2019-02-21T21:20:28.688Z,83.46
2019-02-21T21:25:32.754Z,82.90
2019-02-21T21:30:36.808Z,83.32
2019-02-21T21:35:40.850Z,83.19
2019-02-21T21:40:44.905Z,83.00
2019-02-21T21:45:48.930Z,82.87
2019-02-21T21:50:53.043Z,82.89
2019-02-21T21:55:57.072Z,82.93
2019-02-21T22:01:01.090Z,85.15
2019-02-21T22:06:05.205Z,85.11
2019-02-21T22:11:09.238Z,84.95
2019-02-21T22:16:13.268Z,84.52
2019-02-21T22:21:17.504Z,84.37
2019-02-21T22:26:22.176Z,85.03
2019-02-21T22:31:26.283Z,84.90
2019-02-21T22:36:30.318Z,85.32
2019-02-21T22:41:34.401Z,85.35
2019-02-21T22:46:38.373Z,85.68
2019-02-21T22:51:42.477Z,85.09
2019-02-21T22:56:46.588Z,84.99
2019-02-21T23:01:50.610Z,84.95
2019-02-21T23:07:01.921Z,84.22
2019-02-21T23:12:06.021Z,85.00
2019-02-21T23:17:10.043Z,84.84
2019-02-21T23:22:14.043Z,84.25
2019-02-21T23:27:18.045Z,83.87
2019-02-21T23:32:22.034Z,83.85
2019-02-21T23:37:26.069Z,83.43
2019-02-21T23:42:30.114Z,83.37
2019-02-21T23:47:34.130Z,83.20
2019-02-21T23:52:38.151Z,83.12
2019-02-21T23:57:42.177Z,82.92
